Time;durP1;ratioP1;P1;durP2;ratioP2;P2;SDS_P1;SDS_P2;PMS_P1;PMS_P2;Temp;Humidity;BMP_temperature;BMP_pressure;BME280_temperature;BME280_humidity;BME280_pressure;Samples;Min_cycle;Max_cycle;Signal;HPM_P1;HPM_P2
2021/04/08 00:01:14;;;;;;;6.42;4.70;;;;;;;0.79;70.64;98611.86;1768469;81;21182;-41
2021/04/08 00:03:43;;;;;;;7.83;5.00;;;;;;;0.79;70.61;98616.41;1768563;81;21100;-42
2021/04/08 00:06:12;;;;;;;8.23;5.08;;;;;;;0.80;70.60;98613.98;1768671;81;21175;-42
2021/04/08 00:08:40;;;;;;;9.00;5.33;;;;;;;0.81;70.52;98623.56;1759806;81;21132;-42
2021/04/08 00:11:09;;;;;;;6.87;4.83;;;;;;;0.81;70.46;98618.23;1768490;81;21127;-42
2021/04/08 00:13:38;;;;;;;10.28;5.22;;;;;;;0.82;70.42;98617.14;1768608;81;21009;-41
2021/04/08 00:16:07;;;;;;;8.80;5.05;;;;;;;0.80;70.34;98625.44;1768491;81;21178;-41
2021/04/08 00:18:35;;;;;;;10.00;5.55;;;;;;;0.76;70.51;98626.38;1768428;81;21265;-42
2021/04/08 00:21:04;;;;;;;8.93;5.42;;;;;;;0.76;70.49;98624.50;1768392;81;21167;-42
2021/04/08 00:23:32;;;;;;;7.28;4.78;;;;;;;0.74;70.44;98632.02;1768764;81;21028;-41
2021/04/08 00:26:00;;;;;;;9.65;5.70;;;;;;;0.74;70.65;98633.90;1752226;81;21149;-41
2021/04/08 00:28:29;;;;;;;8.58;5.30;;;;;;;0.77;70.61;98635.97;1737968;82;21143;-41
2021/04/08 00:30:57;;;;;;;8.38;5.22;;;;;;;0.78;70.45;98634.84;1738004;81;21570;-42
2021/04/08 00:33:25;;;;;;;10.70;5.60;;;;;;;0.80;70.44;98642.00;1737853;82;21159;-42
2021/04/08 00:35:53;;;;;;;9.18;5.30;;;;;;;0.77;70.33;98639.97;1738009;82;21017;-42
2021/04/08 00:38:21;;;;;;;9.30;5.15;;;;;;;0.75;70.34;98636.81;1738427;81;21133;-41
2021/04/08 00:40:49;;;;;;;12.15;5.97;;;;;;;0.71;70.47;98646.54;1738019;82;21446;-42
2021/04/08 00:43:17;;;;;;;9.03;6.20;;;;;;;0.69;70.30;98648.17;1737906;82;21149;-41
2021/04/08 00:45:45;;;;;;;8.55;5.42;;;;;;;0.63;70.45;98651.32;1737929;82;21580;-41
2021/04/08 00:48:13;;;;;;;10.80;5.85;;;;;;;0.62;70.70;98657.75;1737934;82;21168;-41
2021/04/08 00:50:41;;;;;;;9.48;5.62;;;;;;;0.60;70.77;98658.05;1737928;82;21169;-42
2021/04/08 00:53:13;;;;;;;7.25;5.62;;;;;;;0.62;70.68;98663.08;1737933;82;21620;-41
2021/04/08 00:55:44;;;;;;;7.95;5.17;;;;;;;0.66;70.56;98668.03;1737939;82;21382;-42
2021/04/08 00:58:12;;;;;;;10.95;6.42;;;;;;;0.67;70.71;98665.60;1737938;82;21195;-42
2021/04/08 01:00:42;;;;;;;10.08;5.80;;;;;;;0.70;70.42;98672.97;1737915;82;21034;-42
2021/04/08 01:03:11;;;;;;;9.38;6.00;;;;;;;0.67;70.51;98669.06;1738003;82;21169;-41
2021/04/08 01:05:39;;;;;;;10.75;5.90;;;;;;;0.69;70.22;98670.84;1738099;82;21560;-42
2021/04/08 01:08:07;;;;;;;10.48;6.10;;;;;;;0.67;70.20;98668.27;1737972;81;23534;-42
2021/04/08 01:10:36;;;;;;;10.18;5.80;;;;;;;0.67;70.35;98679.73;1706915;84;21049;-42
2021/04/08 01:13:08;;;;;;;8.80;6.28;;;;;;;0.66;70.25;98677.36;1685899;84;21025;-41
2021/04/08 01:15:37;;;;;;;9.78;5.67;;;;;;;0.67;70.16;98682.94;1737936;82;21178;-42
2021/04/08 01:18:47;;;;;;;10.08;5.75;;;;;;;0.66;70.28;98678.70;1715735;82;21526;-42
2021/04/08 01:21:37;;;;;;;10.75;6.55;;;;;;;0.64;70.15;98683.00;1738077;82;22141;-42
2021/04/08 01:24:46;;;;;;;10.18;6.80;;;;;;;0.54;70.06;98682.49;1738177;82;21696;-41
2021/04/08 01:27:34;;;;;;;8.70;5.60;;;;;;;0.51;70.04;98686.58;1683587;85;21075;-41
2021/04/08 01:30:38;;;;;;;10.53;6.28;;;;;;;0.49;70.24;98690.09;1840923;78;22686;-41
2021/04/08 01:33:10;;;;;;;8.80;5.95;;;;;;;0.44;70.17;98696.35;1816293;79;21110;-41
2021/04/08 01:35:39;;;;;;;10.53;7.00;;;;;;;0.41;70.32;98698.31;1816247;79;22194;-42
2021/04/08 01:38:31;;;;;;;10.95;6.25;;;;;;;0.41;70.53;98702.31;1728621;79;21000;-41
2021/04/08 01:41:00;;;;;;;11.53;7.62;;;;;;;0.39;70.80;98701.83;1816126;79;21040;-41
2021/04/08 01:43:33;;;;;;;11.83;6.87;;;;;;;0.42;70.71;98713.77;1816113;79;20988;-42
2021/04/08 01:46:00;;;;;;;12.45;7.30;;;;;;;0.48;70.61;98722.42;1816302;79;20972;-42
2021/04/08 01:48:28;;;;;;;11.65;7.50;;;;;;;0.51;70.47;98717.80;1757260;79;21192;-42
2021/04/08 01:50:59;;;;;;;10.78;7.10;;;;;;;0.54;70.45;98719.83;1816158;79;20977;-41
2021/04/08 01:53:27;;;;;;;11.73;7.03;;;;;;;0.55;70.46;98718.74;1816120;79;21027;-41
2021/04/08 01:55:58;;;;;;;13.48;7.30;;;;;;;0.56;70.28;98718.98;1816060;78;21129;-42
2021/04/08 01:58:28;;;;;;;11.70;7.50;;;;;;;0.59;70.26;98726.36;1816121;78;21578;-41
2021/04/08 02:00:56;;;;;;;11.57;7.45;;;;;;;0.60;70.11;98730.06;1816166;79;21198;-42
2021/04/08 02:03:24;;;;;;;13.18;8.23;;;;;;;0.58;70.21;98726.14;1816013;79;21605;-41
2021/04/08 02:05:53;;;;;;;11.70;8.05;;;;;;;0.60;70.16;98734.06;1782671;79;21158;-41
2021/04/08 02:08:21;;;;;;;12.23;7.10;;;;;;;0.59;70.17;98732.48;1811344;79;21365;-42
2021/04/08 02:10:51;;;;;;;12.07;7.33;;;;;;;0.61;69.99;98740.19;1784090;80;21166;-41
2021/04/08 02:13:19;;;;;;;10.70;7.22;;;;;;;0.57;69.89;98740.02;1784055;80;21614;-42
2021/04/08 02:15:48;;;;;;;13.60;7.75;;;;;;;0.58;69.84;98744.81;1719399;80;21109;-41
2021/04/08 02:18:19;;;;;;;14.93;8.50;;;;;;;0.54;69.91;98752.63;1783951;80;21521;-42
2021/04/08 02:20:52;;;;;;;15.00;9.60;;;;;;;0.52;69.95;98758.04;1784008;80;21004;-42
2021/04/08 02:23:23;;;;;;;17.10;10.35;;;;;;;0.50;70.18;98757.00;1783933;80;21553;-41
2021/04/08 02:25:54;;;;;;;13.10;9.55;;;;;;;0.50;70.09;98756.22;1783989;80;21195;-41
2021/04/08 02:28:21;;;;;;;14.45;9.75;;;;;;;0.52;69.94;98764.70;1782783;80;21581;-42
2021/04/08 02:30:50;;;;;;;14.90;9.90;;;;;;;0.51;69.95;98763.92;1773279;80;21147;-41
2021/04/08 02:33:24;;;;;;;13.75;9.78;;;;;;;0.53;69.82;98772.41;1773130;80;21162;-42
2021/04/08 02:35:53;;;;;;;14.18;9.43;;;;;;;0.52;69.75;98768.70;1773199;80;21131;-42
2021/04/08 02:38:24;;;;;;;14.50;9.65;;;;;;;0.50;69.57;98773.55;1773238;80;22091;-41
2021/04/08 02:40:52;;;;;;;17.20;10.70;;;;;;;0.44;69.69;98777.69;1772762;80;21016;-41
2021/04/08 02:43:21;;;;;;;14.33;9.48;;;;;;;0.43;69.70;98784.13;1772731;81;21533;-41
2021/04/08 02:45:49;;;;;;;13.45;8.78;;;;;;;0.39;69.79;98777.81;1772581;81;21162;-41
2021/04/08 02:48:19;;;;;;;13.05;9.08;;;;;;;0.36;69.83;98782.44;1749593;81;21132;-42
2021/04/08 02:50:56;;;;;;;15.50;9.00;;;;;;;0.35;70.08;98783.52;1772713;81;21246;-41
2021/04/08 02:53:55;;;;;;;14.13;8.18;;;;;;;0.30;70.10;98784.98;1772510;80;21161;-42
2021/04/08 02:56:35;;;;;;;11.48;8.05;;;;;;;0.30;70.13;98793.53;1743594;81;21182;-41
2021/04/08 02:59:26;;;;;;;11.78;7.67;;;;;;;0.24;70.22;98801.44;1772806;81;21904;-42
2021/04/08 03:02:05;;;;;;;13.68;7.60;;;;;;;0.21;70.21;98805.48;1772380;80;21170;-41
2021/04/08 03:04:43;;;;;;;12.10;8.20;;;;;;;0.19;70.14;98812.22;1772611;81;23516;-41
2021/04/08 03:07:13;;;;;;;16.60;9.58;;;;;;;0.15;70.29;98808.56;1772686;81;21001;-41
2021/04/08 03:09:42;;;;;;;13.88;8.90;;;;;;;0.15;70.25;98812.56;1795272;77;21000;-42
2021/04/08 03:12:13;;;;;;;15.63;9.08;;;;;;;0.13;70.28;98822.22;1804347;79;21111;-42
2021/04/08 03:14:47;;;;;;;11.88;7.42;;;;;;;0.11;70.28;98812.93;1804365;79;21166;-42
2021/04/08 03:17:18;;;;;;;14.50;9.08;;;;;;;0.12;70.40;98836.63;1780221;79;21360;-42
2021/04/08 03:19:46;;;;;;;12.55;7.97;;;;;;;0.11;70.59;98841.70;1804382;79;21554;-42
2021/04/08 03:22:16;;;;;;;16.55;10.28;;;;;;;0.13;70.65;98837.41;1804434;79;21143;-42
2021/04/08 03:24:44;;;;;;;14.90;8.80;;;;;;;0.07;70.60;98836.75;1804364;79;21150;-42
2021/04/08 03:27:13;;;;;;;14.05;9.38;;;;;;;0.08;70.58;98838.33;1780001;79;21130;-42
2021/04/08 03:29:41;;;;;;;12.50;8.90;;;;;;;0.07;70.63;98839.41;1751519;79;22142;-42
2021/04/08 03:32:09;;;;;;;12.23;8.68;;;;;;;0.09;70.56;98841.24;1815405;79;21126;-42
2021/04/08 03:34:37;;;;;;;12.55;8.93;;;;;;;0.05;70.60;98840.25;1815449;79;21142;-41
2021/04/08 03:37:07;;;;;;;13.65;9.98;;;;;;;0.06;70.71;98844.49;1815574;79;20925;-42
2021/04/08 03:39:35;;;;;;;16.87;9.75;;;;;;;0.06;70.79;98844.49;1815468;79;21533;-42
2021/04/08 03:42:13;;;;;;;16.17;10.50;;;;;;;0.10;70.80;98850.78;1815492;79;21374;-42
2021/04/08 03:44:42;;;;;;;17.02;9.73;;;;;;;0.10;70.85;98854.78;1815352;79;21158;-42
2021/04/08 03:47:11;;;;;;;13.35;9.63;;;;;;;0.13;70.73;98860.86;1815562;78;21094;-42
2021/04/08 03:49:41;;;;;;;15.65;9.20;;;;;;;0.15;70.66;98856.00;1815493;79;21158;-41
2021/04/08 03:52:11;;;;;;;15.08;9.90;;;;;;;0.15;70.34;98868.53;1757288;79;21150;-43
2021/04/08 03:54:39;;;;;;;15.72;9.45;;;;;;;0.13;70.49;98872.06;1815594;79;21328;-42
2021/04/08 03:57:12;;;;;;;15.43;9.78;;;;;;;0.13;70.83;98879.52;1810253;79;21126;-42
2021/04/08 03:59:40;;;;;;;18.52;9.58;;;;;;;0.17;70.74;98877.81;1815469;79;21126;-43
2021/04/08 04:02:11;;;;;;;14.87;9.80;;;;;;;0.20;70.68;98874.53;1815614;78;21696;-42
2021/04/08 04:04:39;;;;;;;13.28;9.73;;;;;;;0.25;70.67;98877.08;1815713;79;21118;-43
2021/04/08 04:07:07;;;;;;;13.68;9.43;;;;;;;0.27;70.46;98873.58;1815480;79;21269;-42
2021/04/08 04:09:35;;;;;;;13.13;9.65;;;;;;;0.27;70.18;98878.13;1815454;79;21657;-43
2021/04/08 04:12:04;;;;;;;17.70;9.15;;;;;;;0.22;70.43;98872.37;1782102;79;21015;-44
2021/04/08 04:14:32;;;;;;;15.75;9.28;;;;;;;0.21;70.52;98877.99;1815794;79;21137;-42
2021/04/08 04:17:00;;;;;;;14.87;10.05;;;;;;;0.22;70.68;98876.91;1815497;78;21134;-42
2021/04/08 04:19:29;;;;;;;14.87;9.43;;;;;;;0.23;70.79;98881.95;1758036;79;21150;-42
2021/04/08 04:21:58;;;;;;;17.23;10.35;;;;;;;0.30;70.67;98882.30;1815429;79;20984;-43
2021/04/08 04:24:26;;;;;;;15.38;10.15;;;;;;;0.32;70.89;98888.13;1815475;79;21137;-43
2021/04/08 04:26:53;;;;;;;18.15;10.85;;;;;;;0.39;70.74;98891.13;1815540;78;21146;-43
2021/04/08 04:29:22;;;;;;;13.45;9.68;;;;;;;0.43;70.75;98894.80;1814842;79;21123;-42
2021/04/08 04:31:50;;;;;;;15.48;9.63;;;;;;;0.49;70.72;98889.30;1813465;79;21198;-43
2021/04/08 04:34:18;;;;;;;14.53;10.45;;;;;;;0.54;70.62;98889.98;1813384;79;21624;-43
2021/04/08 04:36:47;;;;;;;15.63;10.00;;;;;;;0.57;70.52;98892.05;1813408;79;21135;-43
2021/04/08 04:39:16;;;;;;;16.95;10.23;;;;;;;0.59;70.44;98891.19;1813676;79;21028;-43
2021/04/08 04:41:44;;;;;;;13.68;10.60;;;;;;;0.62;70.54;98896.47;1813380;79;21127;-43
2021/04/08 04:44:11;;;;;;;16.20;10.05;;;;;;;0.59;70.67;98909.06;1813410;79;23510;-43
2021/04/08 04:46:39;;;;;;;15.48;10.70;;;;;;;0.60;70.60;98911.44;1813378;79;21585;-42
2021/04/08 04:49:07;;;;;;;14.70;9.58;;;;;;;0.62;70.67;98913.80;1813403;79;21593;-43
2021/04/08 04:51:35;;;;;;;16.73;11.05;;;;;;;0.65;70.82;98915.85;1718029;82;21198;-43
2021/04/08 04:54:05;;;;;;;15.32;10.18;;;;;;;0.68;70.94;98909.90;1813423;79;21130;-43
2021/04/08 04:56:32;;;;;;;16.10;10.30;;;;;;;0.73;70.89;98914.56;1813380;79;21315;-43
2021/04/08 04:59:00;;;;;;;18.15;11.40;;;;;;;0.73;70.82;98908.44;1813351;79;21110;-43
2021/04/08 05:01:28;;;;;;;15.38;10.05;;;;;;;0.77;71.02;98920.09;1813386;79;21142;-43
2021/04/08 05:03:57;;;;;;;17.12;10.43;;;;;;;0.81;71.00;98922.39;1813451;79;21130;-43
2021/04/08 05:06:25;;;;;;;15.43;10.50;;;;;;;0.81;70.77;98923.73;1813453;78;21174;-43
2021/04/08 05:08:55;;;;;;;13.90;9.60;;;;;;;0.85;70.53;98916.14;1813355;78;21279;-43
2021/04/08 05:11:23;;;;;;;14.87;9.60;;;;;;;0.84;70.54;98929.77;1813292;78;21456;-42
2021/04/08 05:13:51;;;;;;;16.45;11.33;;;;;;;0.86;70.78;98940.95;1813382;79;21179;-42
2021/04/08 05:16:19;;;;;;;14.03;10.32;;;;;;;0.90;70.74;98941.91;1813252;79;21174;-42
2021/04/08 05:18:48;;;;;;;18.85;11.73;;;;;;;0.93;70.60;98933.81;1813422;79;21127;-43
2021/04/08 05:21:16;;;;;;;17.05;11.03;;;;;;;0.97;70.82;98947.58;1813483;79;21376;-42
2021/04/08 05:23:46;;;;;;;16.75;10.85;;;;;;;1.01;70.79;98941.89;1813468;79;20976;-43
2021/04/08 05:26:13;;;;;;;17.52;11.45;;;;;;;1.04;70.63;98938.60;1813594;79;21174;-43
2021/04/08 05:28:41;;;;;;;14.87;10.13;;;;;;;1.07;70.74;98939.31;1813476;79;21158;-42
2021/04/08 05:31:10;;;;;;;15.58;10.32;;;;;;;1.10;70.51;98953.94;1805534;79;21158;-43
2021/04/08 05:33:39;;;;;;;13.87;10.83;;;;;;;1.09;70.70;98947.81;1804582;79;21435;-43
2021/04/08 05:36:09;;;;;;;18.20;11.83;;;;;;;1.14;70.73;98954.90;1804437;79;21127;-43
2021/04/08 05:38:37;;;;;;;14.85;11.50;;;;;;;1.21;71.16;98959.27;1803346;79;21139;-43
2021/04/08 05:41:06;;;;;;;13.10;8.93;;;;;;;1.29;70.73;98963.84;1738251;82;21172;-43
2021/04/08 05:43:37;;;;;;;17.05;11.40;;;;;;;1.38;70.71;98973.22;1737830;82;21148;-42
2021/04/08 05:46:10;;;;;;;16.35;11.65;;;;;;;1.43;70.69;98975.22;1738057;82;21437;-43
2021/04/08 05:48:37;;;;;;;14.85;11.15;;;;;;;1.49;70.27;98979.33;1737816;82;21077;-43
2021/04/08 05:51:06;;;;;;;16.50;10.80;;;;;;;1.52;70.11;98974.70;1737924;82;21196;-43
2021/04/08 05:53:34;;;;;;;14.83;11.10;;;;;;;1.60;70.03;98981.16;1760408;80;21160;-42
2021/04/08 05:56:04;;;;;;;16.15;11.25;;;;;;;1.63;69.75;98977.88;1812784;79;21138;-42
2021/04/08 05:58:31;;;;;;;16.27;11.75;;;;;;;1.78;69.58;98984.14;1812984;79;21360;-43
2021/04/08 06:01:00;;;;;;;16.40;12.07;;;;;;;1.78;69.58;98984.14;1812748;79;21145;-42
2021/04/08 06:03:28;;;;;;;17.15;12.00;;;;;;;1.81;69.07;98995.53;1812814;79;21126;-42
2021/04/08 06:05:56;;;;;;;15.83;11.40;;;;;;;1.82;69.36;98995.78;1812934;79;21136;-43
2021/04/08 06:08:26;;;;;;;16.52;11.28;;;;;;;1.85;69.34;98991.69;1772389;79;21162;-43
2021/04/08 06:10:55;;;;;;;16.97;11.88;;;;;;;1.91;69.21;98993.13;1772610;80;21039;-42
2021/04/08 06:13:24;;;;;;;15.72;11.20;;;;;;;1.93;68.92;98998.41;1772428;81;21146;-43
2021/04/08 06:15:55;;;;;;;16.40;11.78;;;;;;;1.98;68.88;99003.61;1772777;81;21166;-42
2021/04/08 06:18:23;;;;;;;16.57;11.35;;;;;;;1.97;68.74;99002.03;1772649;81;21130;-42
2021/04/08 06:20:51;;;;;;;17.62;12.20;;;;;;;1.99;68.85;98996.35;1772738;80;21600;-43
2021/04/08 06:23:19;;;;;;;17.90;11.97;;;;;;;1.99;68.97;99009.17;1772679;81;21249;-42
2021/04/08 06:25:48;;;;;;;17.00;12.35;;;;;;;2.00;68.70;99009.42;1772716;81;21059;-43
2021/04/08 06:28:16;;;;;;;15.25;11.28;;;;;;;2.06;68.50;99012.19;1772668;81;21139;-43
2021/04/08 06:30:45;;;;;;;17.00;12.68;;;;;;;2.10;69.05;99005.66;1777309;79;21150;-42
2021/04/08 06:33:14;;;;;;;16.60;12.20;;;;;;;2.14;69.34;99012.75;1781579;80;22269;-43
2021/04/08 06:35:42;;;;;;;14.78;11.73;;;;;;;2.21;69.38;99014.18;1781492;80;21696;-43
2021/04/08 06:38:10;;;;;;;14.25;11.68;;;;;;;2.28;69.36;99024.64;1781901;79;21182;-43
2021/04/08 06:40:38;;;;;;;17.25;11.78;;;;;;;2.36;68.69;99022.55;1781342;80;21158;-43
2021/04/08 06:43:10;;;;;;;13.30;11.78;;;;;;;2.43;68.70;99019.39;1781261;80;21111;-43
2021/04/08 06:45:43;;;;;;;16.12;12.18;;;;;;;2.52;67.84;99022.85;1781453;80;21170;-43
2021/04/08 06:48:24;;;;;;;15.10;12.23;;;;;;;2.59;67.09;99025.86;1776291;80;21196;-43
2021/04/08 06:50:52;;;;;;;17.35;12.45;;;;;;;2.61;67.45;99028.45;1781816;79;21154;-42
2021/04/08 06:53:21;;;;;;;15.08;12.55;;;;;;;2.66;67.61;99037.44;1751453;80;21118;-43
2021/04/08 06:55:49;;;;;;;13.78;11.45;;;;;;;2.66;66.56;99039.57;1781334;80;21130;-43
2021/04/08 06:58:17;;;;;;;17.00;12.37;;;;;;;2.71;66.94;99041.30;1781372;80;21146;-43
2021/04/08 07:00:47;;;;;;;15.20;12.43;;;;;;;2.79;66.88;99049.33;1777076;80;23445;-42
2021/04/08 07:03:15;;;;;;;17.65;12.33;;;;;;;2.93;67.69;99043.80;1781338;80;21125;-43
2021/04/08 07:05:43;;;;;;;17.10;12.35;;;;;;;3.03;66.92;99042.93;1781508;80;21102;-43
2021/04/08 07:08:11;;;;;;;15.32;12.47;;;;;;;3.09;65.41;99054.81;1783915;79;21110;-43
2021/04/08 07:10:41;;;;;;;15.35;11.97;;;;;;;3.09;64.97;99043.55;1813392;79;21142;-43
2021/04/08 07:13:08;;;;;;;18.57;13.45;;;;;;;3.05;65.39;99050.08;1813503;79;21195;-43
2021/04/08 07:15:36;;;;;;;16.90;13.03;;;;;;;3.05;65.03;99051.97;1813285;79;21142;-43
2021/04/08 07:18:05;;;;;;;16.82;12.10;;;;;;;3.13;65.60;99059.77;1811847;79;21115;-42
2021/04/08 07:20:34;;;;;;;;;;;;;;;3.33;65.80;99059.11;1783985;80;21184;-43
2021/04/08 07:23:10;;;;;;;17.17;11.80;;;;;;;3.54;64.13;99055.17;1781408;80;20219;-43
2021/04/08 07:26:00;;;;;;;14.85;11.60;;;;;;;3.48;63.17;99062.63;1781335;80;21405;-43
2021/04/08 07:28:32;;;;;;;15.35;12.05;;;;;;;3.55;63.69;99065.58;1754020;80;21154;-43
2021/04/08 07:31:29;;;;;;;16.73;12.07;;;;;;;3.71;65.63;99066.64;1781437;80;21549;-43
2021/04/08 07:33:58;;;;;;;15.53;12.47;;;;;;;3.94;62.98;99073.33;1671402;84;21154;-43
2021/04/08 07:36:31;;;;;;;17.32;11.38;;;;;;;4.09;63.12;99067.98;1694531;84;21275;-43
2021/04/08 07:39:05;;;;;;;15.23;12.13;;;;;;;4.29;60.89;99073.95;1736730;80;22228;-43
2021/04/08 07:41:35;;;;;;;15.50;11.35;;;;;;;4.50;61.75;99081.25;1781325;80;21607;-43
2021/04/08 07:44:08;;;;;;;13.55;10.55;;;;;;;4.55;61.19;99076.45;1781439;80;21170;-43
2021/04/08 07:46:40;;;;;;;17.10;10.72;;;;;;;4.58;59.73;99075.82;1781434;80;21787;-43
2021/04/08 07:49:28;;;;;;;15.58;10.32;;;;;;;4.63;59.62;99089.05;1781480;80;21549;-43
2021/04/08 07:51:59;;;;;;;14.43;10.63;;;;;;;4.72;60.08;99089.77;1781521;80;22130;-43
2021/04/08 07:54:27;;;;;;;11.30;9.33;;;;;;;4.96;61.27;99090.45;1778082;80;21131;-43
2021/04/08 07:56:55;;;;;;;14.28;9.40;;;;;;;5.14;58.45;99101.28;1775668;80;21181;-43
2021/04/08 07:59:26;;;;;;;12.82;9.33;;;;;;;5.20;57.65;99084.41;1781189;80;21098;-43
2021/04/08 08:02:03;;;;;;;10.58;8.48;;;;;;;5.10;56.63;99091.52;1781538;80;21541;-43
2021/04/08 08:04:31;;;;;;;13.93;10.08;;;;;;;5.03;57.11;99096.10;1781365;80;21174;-43
2021/04/08 08:07:02;;;;;;;11.85;9.80;;;;;;;4.96;58.01;99106.58;1781496;80;21585;-43
2021/04/08 08:09:35;;;;;;;13.03;9.13;;;;;;;4.98;58.82;99102.23;1781225;80;21162;-43
2021/04/08 08:12:11;;;;;;;10.98;8.60;;;;;;;5.07;57.97;99101.05;1781609;80;21533;-43
2021/04/08 08:14:41;;;;;;;10.45;8.60;;;;;;;5.17;56.77;99106.02;1781445;80;21114;-43
2021/04/08 08:17:12;;;;;;;11.78;8.75;;;;;;;5.15;56.50;99112.82;1781551;80;22347;-43
2021/04/08 08:19:44;;;;;;;11.45;8.35;;;;;;;5.19;56.48;99113.17;1781354;80;21170;-43
2021/04/08 08:22:20;;;;;;;10.82;8.05;;;;;;;5.33;57.08;99118.27;1781380;80;21198;-43
2021/04/08 08:24:56;;;;;;;12.28;9.53;;;;;;;5.42;55.51;99118.20;1780230;80;21162;-43
2021/04/08 08:27:43;;;;;;;11.75;8.08;;;;;;;5.35;55.50;99122.77;1781390;80;21623;-43
2021/04/08 08:30:17;;;;;;;16.23;8.73;;;;;;;5.33;55.11;99112.89;1781960;80;21372;-43
2021/04/08 08:33:09;;;;;;;11.93;8.38;;;;;;;5.50;55.36;99116.78;1835988;78;22659;-42
2021/04/08 08:35:37;;;;;;;13.85;8.63;;;;;;;5.61;54.85;99119.84;1807771;79;21039;-41
2021/04/08 08:38:16;;;;;;;10.55;8.43;;;;;;;5.65;54.33;99118.84;1808167;79;21270;-42
2021/04/08 08:40:45;;;;;;;12.13;9.10;;;;;;;5.67;54.33;99127.34;1808053;79;21340;-43
2021/04/08 08:43:17;;;;;;;12.70;9.20;;;;;;;5.67;54.52;99109.86;1808211;79;20976;-43
2021/04/08 08:45:47;;;;;;;14.38;9.23;;;;;;;5.76;54.36;99133.21;1802309;79;20995;-43
2021/04/08 08:48:19;;;;;;;13.25;9.00;;;;;;;5.83;53.50;99136.91;1808134;79;21039;-43
2021/04/08 08:50:49;;;;;;;10.55;8.25;;;;;;;5.88;53.32;99126.53;1808177;79;21364;-43
2021/04/08 08:53:20;;;;;;;13.18;8.30;;;;;;;5.99;53.35;99138.44;1808093;79;21012;-42
2021/04/08 08:55:49;;;;;;;10.03;7.95;;;;;;;6.05;52.73;99143.25;1808189;79;21000;-43
2021/04/08 08:58:17;;;;;;;10.32;7.80;;;;;;;6.08;53.22;99134.53;1752370;79;21107;-42
2021/04/08 09:00:47;;;;;;;9.30;7.25;;;;;;;6.12;52.20;99141.36;1808148;79;21162;-42
2021/04/08 09:03:16;;;;;;;13.15;8.78;;;;;;;6.24;52.20;99140.05;1808258;79;21577;-43
2021/04/08 09:05:46;;;;;;;10.85;8.13;;;;;;;6.47;51.31;99148.45;1808171;79;21577;-43
2021/04/08 09:08:16;;;;;;;10.03;8.45;;;;;;;6.74;52.27;99157.74;1805003;79;21609;-43
2021/04/08 09:10:46;;;;;;;10.90;7.60;;;;;;;6.96;51.27;99148.63;1775920;80;21161;-43
2021/04/08 09:13:16;;;;;;;6.37;5.57;;;;;;;7.14;49.32;99142.96;1776541;80;21173;-43
2021/04/08 09:15:44;;;;;;;9.48;7.12;;;;;;;7.33;49.49;99142.56;1722419;80;21656;-43
2021/04/08 09:18:13;;;;;;;9.75;6.60;;;;;;;7.53;47.67;99146.75;1776162;80;21146;-43
2021/04/08 09:20:41;;;;;;;9.60;6.70;;;;;;;7.54;46.90;99146.98;1776495;80;21150;-43
2021/04/08 09:23:12;;;;;;;10.03;7.40;;;;;;;7.53;47.60;99145.41;1722310;80;21135;-43
2021/04/08 09:25:57;;;;;;;9.45;6.67;;;;;;;7.60;46.08;99138.87;1776346;80;21155;-42
2021/04/08 09:28:30;;;;;;;8.30;6.28;;;;;;;7.58;45.08;99153.25;1776252;80;21573;-43
2021/04/08 09:33:49;;;;;;;11.08;7.55;;;;;;;7.82;46.45;99151.78;1782646;80;21820;-43
2021/04/08 09:36:25;;;;;;;10.43;7.08;;;;;;;8.03;45.66;99156.39;1782694;79;21582;-44
2021/04/08 09:39:04;;;;;;;10.45;6.60;;;;;;;8.10;46.07;99153.07;1782715;80;21537;-43
2021/04/08 09:41:56;;;;;;;7.45;6.20;;;;;;;8.22;44.92;99157.05;1782520;79;21051;-43
2021/04/08 09:44:24;;;;;;;9.48;6.33;;;;;;;8.26;44.39;99156.57;1781800;80;21126;-43
2021/04/08 09:46:59;;;;;;;10.63;6.22;;;;;;;8.00;44.46;99157.63;1782354;80;21140;-43
2021/04/08 09:50:10;;;;;;;12.98;7.80;;;;;;;7.54;46.53;99151.81;1835975;78;22204;-42
2021/04/08 09:52:54;;;;;;;11.70;8.03;;;;;;;7.21;47.91;99172.25;1808116;79;21000;-42
2021/04/08 09:55:32;;;;;;;14.80;8.30;;;;;;;7.04;47.94;99167.69;1808233;79;21549;-42
2021/04/08 09:58:04;;;;;;;9.80;7.58;;;;;;;6.86;47.89;99166.61;1802646;79;21033;-42
2021/04/08 10:00:33;;;;;;;10.35;7.58;;;;;;;6.71;48.69;99175.94;1808068;79;21177;-42
2021/04/08 10:03:06;;;;;;;11.22;6.90;;;;;;;6.63;49.28;99177.64;1808165;79;21042;-42
2021/04/08 10:05:38;;;;;;;12.90;7.62;;;;;;;6.61;48.78;99180.43;1808140;79;21020;-42
2021/04/08 10:08:08;;;;;;;11.78;8.33;;;;;;;6.51;48.68;99174.38;1801045;79;21386;-42
2021/04/08 10:10:42;;;;;;;9.85;7.15;;;;;;;6.38;48.67;99173.36;1776153;80;21540;-42
2021/04/08 10:13:30;;;;;;;12.03;8.43;;;;;;;6.29;49.24;99174.82;1776213;80;21134;-42
2021/04/08 10:16:12;;;;;;;10.43;7.17;;;;;;;6.25;49.05;99189.26;1776199;80;21055;-42
2021/04/08 10:18:41;;;;;;;11.78;7.53;;;;;;;6.20;48.47;99186.22;1771176;80;21580;-42
2021/04/08 10:21:18;;;;;;;10.23;7.03;;;;;;;6.20;47.57;99186.22;1776363;80;22276;-42
2021/04/08 10:23:49;;;;;;;10.38;7.25;;;;;;;6.31;47.85;99181.98;1776350;80;21150;-42
2021/04/08 10:26:32;;;;;;;11.50;7.20;;;;;;;6.46;47.56;99178.64;1776254;80;21193;-42
2021/04/08 10:29:03;;;;;;;12.98;7.55;;;;;;;6.62;47.12;99184.70;1776182;80;21098;-42
2021/04/08 10:31:38;;;;;;;10.68;6.85;;;;;;;6.66;47.07;99185.59;1776472;80;21537;-41
2021/04/08 10:34:13;;;;;;;8.35;6.55;;;;;;;6.68;46.77;99179.31;1746189;80;21589;-42
2021/04/08 10:36:55;;;;;;;8.18;6.35;;;;;;;6.68;46.74;99178.73;1776236;80;21034;-42
2021/04/08 10:39:30;;;;;;;9.48;6.37;;;;;;;6.89;45.27;99176.70;1776371;80;21158;-42
2021/04/08 10:42:09;;;;;;;9.65;6.00;;;;;;;7.23;44.97;99166.52;1776196;80;21146;-42
2021/04/08 10:44:52;;;;;;;10.70;5.70;;;;;;;7.63;44.25;99162.45;1776469;80;21146;-42
2021/04/08 10:47:24;;;;;;;10.20;5.72;;;;;;;8.03;42.87;99167.19;1776224;80;21461;-42
2021/04/08 10:50:00;;;;;;;7.62;5.60;;;;;;;8.28;41.21;99168.58;1781006;80;21590;-42
2021/04/08 10:52:35;;;;;;;8.85;5.90;;;;;;;8.38;40.39;99169.22;1782582;80;21200;-42
2021/04/08 10:55:10;;;;;;;7.47;6.10;;;;;;;8.29;40.47;99180.17;1782649;79;21090;-42
2021/04/08 10:57:41;;;;;;;7.78;5.53;;;;;;;8.10;40.48;99178.72;1782547;80;21182;-42
2021/04/08 11:00:12;;;;;;;7.05;5.70;;;;;;;7.80;40.40;99185.85;1782344;80;21273;-42
2021/04/08 11:02:41;;;;;;;8.28;5.62;;;;;;;7.51;42.06;99186.20;1790224;79;21561;-43
2021/04/08 11:05:21;;;;;;;8.05;5.53;;;;;;;7.42;42.68;99197.14;1814294;79;21642;-43
2021/04/08 11:07:52;;;;;;;6.47;4.20;;;;;;;7.62;42.73;99180.55;1814252;79;21118;-43
2021/04/08 11:10:26;;;;;;;7.37;5.58;;;;;;;7.97;40.54;99178.02;1813989;79;21158;-43
2021/04/08 11:12:57;;;;;;;6.30;4.58;;;;;;;8.10;39.96;99181.42;1813968;79;21043;-43
2021/04/08 11:15:29;;;;;;;6.15;5.05;;;;;;;8.29;41.11;99185.57;1784253;79;21146;-43
2021/04/08 11:18:07;;;;;;;7.60;5.67;;;;;;;8.71;39.59;99180.45;1794295;79;21182;-43
2021/04/08 11:20:43;;;;;;;8.60;5.62;;;;;;;9.18;37.62;99182.26;1796974;79;21158;-43
2021/04/08 11:23:12;;;;;;;8.83;5.70;;;;;;;9.43;37.83;99180.86;1734080;82;22279;-44
2021/04/08 11:25:40;;;;;;;8.45;5.70;;;;;;;9.68;39.04;99192.97;1733480;82;21381;-43
2021/04/08 11:28:08;;;;;;;7.78;4.50;;;;;;;9.85;38.24;99169.50;1771077;80;21185;-43
2021/04/08 11:30:40;;;;;;;7.33;5.20;;;;;;;10.09;39.28;99173.02;1753794;80;21173;-43
2021/04/08 11:33:21;;;;;;;7.75;4.55;;;;;;;10.20;37.85;99175.38;1787443;79;21196;-43
2021/04/08 11:35:49;;;;;;;5.62;3.75;;;;;;;10.32;38.23;99177.89;1790019;79;21170;-43
2021/04/08 11:38:20;;;;;;;6.70;4.60;;;;;;;10.44;35.26;99185.84;1789100;79;21187;-43
2021/04/08 11:41:03;;;;;;;7.65;5.08;;;;;;;10.49;34.98;99180.13;1795016;79;21359;-43
2021/04/08 11:43:51;;;;;;;6.78;4.65;;;;;;;10.62;36.35;99177.42;1798873;79;21919;-43
2021/04/08 11:46:35;;;;;;;5.75;4.47;;;;;;;10.65;35.45;99192.95;1788728;79;21122;-43
2021/04/08 11:49:19;;;;;;;6.53;4.20;;;;;;;10.43;35.61;99191.05;1785591;79;21704;-43
2021/04/08 11:51:48;;;;;;;6.58;3.92;;;;;;;9.96;35.32;99194.08;1781474;79;21474;-43
2021/04/08 11:54:17;;;;;;;6.65;4.12;;;;;;;9.53;35.48;99193.83;1781595;79;21161;-43
2021/04/08 11:56:47;;;;;;;7.08;3.58;;;;;;;9.32;34.62;99201.49;1791114;79;21110;-43
2021/04/08 11:59:21;;;;;;;7.15;3.47;;;;;;;9.18;35.02;99207.95;1765697;79;21056;-43